createdAt,value
2022-09-21T00:01:20.672Z,5.00
2022-09-21T00:03:48.526Z,4.70
2022-09-21T00:06:20.456Z,4.75
2022-09-21T00:08:47.981Z,4.82
2022-09-21T00:11:16.741Z,4.75
2022-09-21T00:13:44.304Z,4.63
2022-09-21T00:16:11.038Z,4.95
2022-09-21T00:18:38.174Z,5.53
2022-09-21T00:21:14.442Z,4.90
2022-09-21T00:23:41.973Z,4.45
2022-09-21T00:26:10.442Z,5.25
2022-09-21T00:28:37.950Z,5.10
2022-09-21T00:31:07.170Z,4.88
2022-09-21T00:33:34.814Z,4.55
2022-09-21T00:36:05.767Z,4.68
2022-09-21T00:38:33.173Z,5.07
2022-09-21T00:41:00.170Z,4.82
2022-09-21T00:43:27.371Z,4.63
2022-09-21T00:46:05.347Z,5.32
2022-09-21T00:48:33.680Z,4.63
2022-09-21T00:51:05.737Z,4.25
2022-09-21T00:53:32.903Z,4.97
2022-09-21T00:56:02.670Z,4.93
2022-09-21T00:58:34.594Z,5.18
2022-09-21T01:01:01.358Z,4.70
2022-09-21T01:03:31.415Z,5.03
2022-09-21T01:05:58.217Z,4.40
2022-09-21T01:08:28.381Z,4.70
2022-09-21T01:11:46.785Z,4.63
2022-09-21T01:14:34.894Z,4.28
2022-09-21T01:17:19.818Z,4.18
2022-09-21T01:19:49.635Z,3.97
2022-09-21T01:22:43.429Z,4.40
2022-09-21T01:25:48.505Z,3.97
2022-09-21T01:28:44.322Z,4.10
2022-09-21T01:31:22.104Z,4.00
2022-09-21T01:33:54.470Z,4.05
2022-09-21T01:36:25.893Z,4.28
2022-09-21T01:38:57.330Z,4.10
2022-09-21T01:41:28.065Z,3.83
2022-09-21T01:44:01.646Z,3.72
2022-09-21T01:46:32.623Z,4.22
2022-09-21T01:49:09.296Z,3.53
2022-09-21T01:51:41.286Z,3.70
2022-09-21T01:54:13.183Z,4.50
2022-09-21T01:56:46.610Z,3.90
2022-09-21T01:59:16.133Z,3.72
2022-09-21T02:01:54.056Z,4.05
2022-09-21T02:04:20.923Z,3.78
2022-09-21T02:06:49.096Z,3.90
2022-09-21T02:09:17.326Z,3.83
2022-09-21T02:11:45.053Z,4.05
2022-09-21T02:14:20.447Z,4.00
2022-09-21T02:17:08.030Z,3.53
2022-09-21T02:20:03.452Z,3.78
2022-09-21T02:22:49.531Z,3.75
2022-09-21T02:25:21.303Z,3.25
2022-09-21T02:28:12.166Z,3.75
2022-09-21T02:30:45.043Z,3.75
2022-09-21T02:33:18.132Z,3.92
2022-09-21T02:35:54.337Z,3.90
2022-09-21T02:38:41.477Z,4.03
2022-09-21T02:41:28.210Z,4.15
2022-09-21T02:44:07.429Z,4.25
2022-09-21T02:46:54.954Z,4.82
2022-09-21T02:49:46.083Z,5.18
2022-09-21T02:52:16.564Z,5.60
2022-09-21T02:54:47.814Z,5.10
2022-09-21T02:57:17.258Z,6.10
2022-09-21T02:59:44.278Z,4.95
2022-09-21T03:02:12.628Z,5.07
2022-09-21T03:04:44.543Z,5.35
2022-09-21T03:07:11.484Z,5.65
2022-09-21T03:09:38.313Z,6.38
2022-09-21T03:12:05.234Z,5.75
2022-09-21T03:14:33.349Z,4.90
2022-09-21T03:17:00.764Z,4.97
2022-09-21T03:19:28.510Z,5.72
2022-09-21T03:21:55.489Z,5.25
2022-09-21T03:24:40.768Z,5.50
2022-09-21T03:27:09.320Z,5.38
2022-09-21T03:29:36.150Z,4.95
2022-09-21T03:32:03.755Z,5.57
2022-09-21T03:34:31.462Z,4.97
2022-09-21T03:36:58.289Z,5.03
2022-09-21T03:39:25.333Z,5.43
2022-09-21T03:41:52.675Z,4.20
2022-09-21T03:44:20.030Z,6.15
2022-09-21T03:46:46.667Z,4.75
2022-09-21T03:49:13.414Z,4.70
2022-09-21T03:51:40.614Z,5.10
2022-09-21T03:54:07.598Z,4.88
2022-09-21T03:56:34.224Z,4.47
2022-09-21T03:59:00.980Z,4.85
2022-09-21T04:01:27.859Z,4.55
2022-09-21T04:03:54.489Z,4.30
2022-09-21T04:06:21.383Z,4.53
2022-09-21T04:08:48.074Z,4.40
2022-09-21T04:11:18.579Z,4.30
2022-09-21T04:13:49.742Z,4.50
2022-09-21T04:16:18.022Z,4.25
2022-09-21T04:18:44.769Z,4.78
2022-09-21T04:21:11.479Z,4.10
2022-09-21T04:23:38.178Z,4.30
2022-09-21T04:26:04.992Z,4.07
2022-09-21T04:28:32.950Z,4.55
2022-09-21T04:30:59.693Z,4.18
2022-09-21T04:33:26.475Z,4.90
2022-09-21T04:35:56.409Z,5.07
2022-09-21T04:38:23.105Z,5.15
2022-09-21T04:40:57.818Z,4.07
2022-09-21T04:43:25.708Z,5.18
2022-09-21T04:45:52.401Z,5.20
2022-09-21T04:48:19.102Z,5.40
2022-09-21T04:50:49.571Z,5.30
2022-09-21T04:53:16.991Z,4.80
2022-09-21T04:55:45.378Z,4.63
2022-09-21T04:58:12.000Z,4.70
2022-09-21T05:00:38.738Z,5.05
2022-09-21T05:03:05.571Z,4.30
2022-09-21T05:05:33.193Z,5.40
2022-09-21T05:08:00.103Z,5.85
2022-09-21T05:10:27.201Z,5.13
2022-09-21T05:12:53.893Z,4.15
2022-09-21T05:15:22.054Z,4.25
2022-09-21T05:17:48.867Z,4.13
2022-09-21T05:20:15.720Z,3.70
2022-09-21T05:22:42.347Z,3.78
2022-09-21T05:25:09.689Z,3.78
2022-09-21T05:27:36.363Z,4.03
2022-09-21T05:30:03.728Z,3.83
2022-09-21T05:32:31.453Z,3.92
2022-09-21T05:35:13.401Z,4.25
2022-09-21T05:37:50.203Z,3.92
2022-09-21T05:40:17.407Z,4.50
2022-09-21T05:42:44.471Z,3.92
2022-09-21T05:45:17.824Z,4.07
2022-09-21T05:47:50.419Z,4.50
2022-09-21T05:50:16.952Z,4.03
2022-09-21T05:52:49.555Z,4.05
2022-09-21T05:55:26.923Z,3.58
2022-09-21T05:58:12.278Z,3.85
2022-09-21T06:01:02.207Z,3.65
2022-09-21T06:03:30.942Z,3.67
2022-09-21T06:05:58.718Z,3.88
2022-09-21T06:08:26.782Z,4.00
2022-09-21T06:10:54.799Z,4.05
2022-09-21T06:13:21.744Z,3.58
2022-09-21T06:15:48.385Z,3.75
2022-09-21T06:18:17.931Z,4.00
2022-09-21T06:20:45.074Z,4.13
2022-09-21T06:23:15.493Z,4.03
2022-09-21T06:25:42.456Z,4.10
2022-09-21T06:28:12.648Z,4.03
2022-09-21T06:30:42.418Z,4.00
2022-09-21T06:33:09.971Z,4.45
2022-09-21T06:35:37.065Z,5.07
2022-09-21T06:38:06.062Z,5.47
2022-09-21T06:40:35.349Z,4.97
2022-09-21T06:43:04.195Z,5.55
2022-09-21T06:45:31.224Z,5.53
2022-09-21T06:47:58.368Z,6.18
2022-09-21T06:50:25.229Z,5.72
2022-09-21T06:52:51.839Z,5.20
2022-09-21T06:55:18.683Z,5.88
2022-09-21T06:57:45.430Z,5.10
2022-09-21T07:00:13.680Z,5.68
2022-09-21T07:02:45.506Z,5.05
2022-09-21T07:05:12.893Z,5.30
2022-09-21T07:07:40.496Z,5.13
2022-09-21T07:10:12.376Z,7.25
2022-09-21T07:12:43.227Z,5.82
2022-09-21T07:15:10.614Z,6.63
2022-09-21T07:17:39.635Z,6.22
2022-09-21T07:20:08.162Z,6.45
2022-09-21T07:22:35.705Z,5.40
2022-09-21T07:25:03.717Z,5.82
2022-09-21T07:27:32.457Z,6.28
2022-09-21T07:29:59.298Z,6.03
2022-09-21T07:32:26.218Z,5.88
2022-09-21T07:34:56.573Z,5.03
2022-09-21T07:37:26.381Z,5.28
2022-09-21T07:39:53.500Z,5.28
2022-09-21T07:42:22.875Z,5.32
2022-09-21T07:44:51.272Z,5.15
2022-09-21T07:47:18.426Z,5.07
2022-09-21T07:49:47.028Z,5.38
2022-09-21T07:52:15.602Z,5.07
2022-09-21T07:54:42.317Z,5.22
2022-09-21T07:57:27.662Z,5.78
2022-09-21T07:59:58.233Z,5.35
2022-09-21T08:02:24.904Z,6.82
2022-09-21T08:04:52.019Z,7.03
2022-09-21T08:07:19.246Z,6.90
2022-09-21T08:09:49.462Z,7.35
2022-09-21T08:12:18.751Z,6.93
2022-09-21T08:14:45.776Z,7.95
2022-09-21T08:17:12.439Z,7.78
2022-09-21T08:19:39.259Z,7.97
2022-09-21T08:22:06.554Z,8.25
2022-09-21T08:24:33.422Z,8.73
2022-09-21T08:27:00.390Z,8.85
2022-09-21T08:29:27.372Z,8.23
2022-09-21T08:31:54.029Z,8.68
2022-09-21T08:34:20.894Z,8.85
2022-09-21T08:36:50.650Z,8.50
2022-09-21T08:39:19.702Z,8.32
2022-09-21T08:42:14.874Z,8.48
2022-09-21T08:44:56.695Z,7.82
2022-09-21T08:47:34.083Z,7.50
2022-09-21T08:50:06.030Z,7.57
2022-09-21T08:52:33.643Z,8.50
2022-09-21T08:55:13.109Z,8.15
2022-09-21T08:57:42.092Z,7.65
2022-09-21T09:00:15.568Z,7.18
2022-09-21T09:03:05.402Z,7.82
2022-09-21T09:05:43.848Z,6.97
2022-09-21T09:08:22.406Z,7.30
2022-09-21T09:10:58.103Z,7.03
2022-09-21T09:13:32.076Z,6.25
2022-09-21T09:16:36.808Z,6.55
2022-09-21T09:19:19.006Z,5.47
2022-09-21T09:21:46.799Z,6.32
2022-09-21T09:24:35.326Z,6.18
2022-09-21T09:27:15.214Z,6.10
2022-09-21T09:30:04.625Z,6.72
2022-09-21T09:32:43.063Z,6.05
2022-09-21T09:35:26.897Z,5.50
2022-09-21T09:38:19.502Z,5.32
2022-09-21T09:40:52.563Z,4.97
2022-09-21T09:43:46.783Z,6.28
2022-09-21T09:46:23.297Z,4.88
2022-09-21T09:49:05.218Z,4.47
2022-09-21T09:51:35.277Z,3.90
2022-09-21T09:54:06.916Z,3.70
2022-09-21T09:56:36.462Z,3.30
2022-09-21T09:59:09.623Z,3.80
2022-09-21T10:01:42.736Z,4.20
2022-09-21T10:04:12.201Z,3.75
2022-09-21T10:06:45.177Z,3.25
2022-09-21T10:09:31.920Z,3.80
2022-09-21T10:12:05.722Z,3.80
2022-09-21T10:14:35.330Z,3.42
2022-09-21T10:17:07.402Z,2.92
2022-09-21T10:19:34.498Z,3.08
2022-09-21T10:22:04.339Z,3.30
2022-09-21T10:24:37.850Z,3.38
2022-09-21T10:27:11.792Z,3.42
2022-09-21T10:29:47.793Z,3.75
2022-09-21T10:32:15.201Z,3.33
2022-09-21T10:35:01.430Z,2.92
2022-09-21T10:37:41.381Z,3.70
2022-09-21T10:40:20.307Z,2.90
2022-09-21T10:42:54.717Z,2.40
2022-09-21T10:45:30.613Z,2.30
2022-09-21T10:47:57.486Z,2.50
2022-09-21T10:50:30.538Z,2.30
2022-09-21T10:53:09.445Z,2.30
2022-09-21T10:56:12.007Z,3.03
2022-09-21T10:59:22.146Z,2.40
2022-09-21T11:01:54.892Z,2.00
2022-09-21T11:04:48.597Z,1.98
2022-09-21T11:07:25.168Z,1.98
2022-09-21T11:10:18.639Z,1.70
2022-09-21T11:13:30.908Z,1.45
2022-09-21T11:16:20.198Z,1.50
2022-09-21T11:19:09.141Z,1.40
2022-09-21T11:21:50.303Z,1.48
2022-09-21T11:24:43.548Z,1.55
2022-09-21T11:27:28.422Z,1.40
2022-09-21T11:30:07.288Z,1.50
2022-09-21T11:33:19.712Z,1.23
2022-09-21T11:35:59.290Z,1.05
2022-09-21T11:39:11.017Z,1.23
2022-09-21T11:41:50.116Z,1.20
2022-09-21T11:44:19.825Z,1.48
2022-09-21T11:47:03.563Z,1.35
2022-09-21T11:49:59.010Z,1.58
2022-09-21T11:52:34.448Z,1.13
2022-09-21T11:55:09.591Z,1.15
2022-09-21T11:58:10.652Z,1.23
2022-09-21T12:00:53.845Z,1.40
2022-09-21T12:03:45.580Z,1.15
2022-09-21T12:06:24.247Z,1.15
2022-09-21T12:09:05.981Z,1.30
2022-09-21T12:12:08.129Z,1.13
2022-09-21T12:14:34.832Z,0.70
2022-09-21T12:17:05.707Z,0.90
2022-09-21T12:19:41.881Z,0.80
2022-09-21T12:22:24.539Z,1.10
2022-09-21T12:24:55.215Z,0.93
2022-09-21T12:27:39.515Z,0.98
2022-09-21T12:30:17.109Z,0.85
2022-09-21T12:32:57.088Z,0.80
2022-09-21T12:35:39.507Z,1.00
2022-09-21T12:38:15.528Z,1.42
2022-09-21T12:40:57.801Z,1.00
2022-09-21T12:43:33.449Z,0.90
2022-09-21T12:46:22.305Z,1.10
2022-09-21T12:48:49.422Z,1.08
2022-09-21T12:51:25.666Z,0.88
2022-09-21T12:53:55.405Z,1.05
2022-09-21T12:56:46.867Z,0.60
2022-09-21T12:59:19.885Z,0.80
2022-09-21T13:02:17.727Z,1.00
2022-09-21T13:05:04.823Z,0.90
2022-09-21T13:07:57.178Z,1.10
2022-09-21T13:10:45.945Z,0.70
2022-09-21T13:13:38.762Z,0.80
2022-09-21T13:16:34.127Z,0.75
2022-09-21T13:19:02.713Z,0.93
2022-09-21T13:21:32.252Z,1.00
2022-09-21T13:24:02.173Z,0.80
2022-09-21T13:26:37.586Z,0.90
2022-09-21T13:32:00.403Z,1.20
2022-09-21T13:34:35.218Z,1.00
2022-09-21T13:37:26.030Z,0.82
2022-09-21T13:40:01.609Z,0.50
2022-09-21T13:42:34.800Z,0.70
2022-09-21T13:45:13.824Z,0.95
2022-09-21T13:47:42.872Z,1.10
2022-09-21T13:50:34.548Z,1.02
2022-09-21T13:53:17.705Z,0.95
2022-09-21T13:56:16.785Z,0.88
2022-09-21T13:58:47.113Z,0.82
2022-09-21T14:01:45.347Z,0.60
2022-09-21T14:04:25.394Z,0.70
2022-09-21T14:06:54.321Z,0.90
2022-09-21T14:09:23.868Z,0.82
2022-09-21T14:12:19.474Z,0.70
2022-09-21T14:15:11.316Z,0.80
2022-09-21T14:17:40.679Z,0.90
2022-09-21T14:20:30.423Z,1.02
2022-09-21T14:23:20.069Z,0.80
2022-09-21T14:25:58.046Z,0.70
2022-09-21T14:28:38.542Z,0.90
2022-09-21T14:31:19.080Z,0.80
2022-09-21T14:33:50.316Z,0.95
2022-09-21T14:36:22.358Z,0.75
2022-09-21T14:39:00.587Z,0.80
2022-09-21T14:41:34.503Z,0.85
2022-09-21T14:44:01.611Z,0.70
2022-09-21T14:47:04.125Z,0.70
2022-09-21T14:49:39.975Z,0.73
2022-09-21T14:52:54.830Z,0.75
2022-09-21T14:55:43.228Z,0.82
2022-09-21T14:58:42.858Z,0.60
2022-09-21T15:01:42.296Z,0.70
2022-09-21T15:04:27.350Z,0.70
2022-09-21T15:07:31.119Z,0.88
2022-09-21T15:10:41.034Z,0.75
2022-09-21T15:13:26.521Z,0.95
2022-09-21T15:15:53.329Z,0.90
2022-09-21T15:18:25.634Z,0.80
2022-09-21T15:21:02.391Z,0.80
2022-09-21T15:23:34.720Z,0.80
2022-09-21T15:26:14.920Z,1.13
2022-09-21T15:29:08.470Z,0.90
2022-09-21T15:31:38.053Z,0.77
2022-09-21T15:34:06.898Z,1.02
2022-09-21T15:36:38.502Z,0.80
2022-09-21T15:39:05.949Z,0.80
2022-09-21T15:41:47.586Z,1.00
2022-09-21T15:44:24.447Z,0.80
2022-09-21T15:49:49.204Z,0.70
2022-09-21T15:52:31.582Z,1.27
2022-09-21T15:55:09.737Z,0.80
2022-09-21T15:57:40.730Z,0.80
2022-09-21T16:00:23.543Z,0.63
2022-09-21T16:03:19.554Z,0.80
2022-09-21T16:05:50.240Z,0.70
2022-09-21T16:08:27.547Z,0.93
2022-09-21T16:11:15.835Z,1.10
2022-09-21T16:14:06.005Z,0.75
2022-09-21T16:16:32.902Z,0.80
2022-09-21T16:19:00.280Z,1.00
2022-09-21T16:21:37.836Z,0.80
2022-09-21T16:24:13.670Z,0.70
2022-09-21T16:26:41.692Z,0.80
2022-09-21T16:29:08.551Z,1.10
2022-09-21T16:31:37.346Z,0.63
2022-09-21T16:34:33.348Z,0.90
2022-09-21T16:37:02.802Z,1.00
2022-09-21T16:39:29.434Z,0.70
2022-09-21T16:42:01.507Z,0.80
2022-09-21T16:44:31.538Z,0.80
2022-09-21T16:47:01.148Z,1.20
2022-09-21T16:49:32.848Z,1.10
2022-09-21T16:51:59.857Z,0.98
2022-09-21T16:54:27.778Z,1.13
2022-09-21T16:56:57.651Z,1.52
2022-09-21T16:59:25.533Z,1.25
2022-09-21T17:01:56.262Z,1.00
2022-09-21T17:04:28.761Z,0.90
2022-09-21T17:06:56.102Z,1.42
2022-09-21T17:09:31.389Z,1.13
2022-09-21T17:12:01.378Z,1.00
2022-09-21T17:14:33.009Z,1.30
2022-09-21T17:17:00.800Z,1.55
2022-09-21T17:19:27.892Z,1.60
2022-09-21T17:21:54.671Z,1.45
2022-09-21T17:24:45.866Z,2.03
2022-09-21T17:27:08.218Z,1.90
2022-09-21T17:29:37.267Z,3.40
2022-09-21T17:32:09.748Z,3.35
2022-09-21T17:34:36.680Z,2.58
2022-09-21T17:37:03.493Z,2.40
2022-09-21T17:39:30.255Z,2.10
2022-09-21T17:42:02.848Z,1.80
2022-09-21T17:44:52.548Z,1.88
2022-09-21T17:47:23.633Z,1.92
2022-09-21T17:49:51.325Z,2.00
2022-09-21T17:52:39.161Z,2.10
2022-09-21T17:55:08.729Z,2.60
2022-09-21T17:57:59.654Z,3.00
2022-09-21T18:00:50.622Z,3.05
2022-09-21T18:04:44.976Z,3.35
2022-09-21T18:07:12.377Z,3.15
2022-09-21T18:09:39.389Z,3.85
2022-09-21T18:12:28.366Z,3.17
2022-09-21T18:15:15.017Z,3.10
2022-09-21T18:18:12.849Z,3.30
2022-09-21T18:21:03.724Z,3.63
2022-09-21T18:23:42.586Z,3.65
2022-09-21T18:26:15.575Z,4.07
2022-09-21T18:28:49.981Z,4.30
2022-09-21T18:31:58.386Z,4.18
2022-09-21T18:34:52.129Z,4.50
2022-09-21T18:37:40.098Z,4.70
2022-09-21T18:40:09.590Z,6.22
2022-09-21T18:42:42.419Z,8.13
2022-09-21T18:45:20.083Z,7.18
2022-09-21T18:47:59.253Z,8.45
2022-09-21T18:50:50.517Z,8.98
2022-09-21T18:53:34.001Z,9.43
2022-09-21T18:56:01.083Z,9.43
2022-09-21T18:58:30.187Z,8.68
2022-09-21T19:00:57.412Z,8.82
2022-09-21T19:03:24.751Z,8.70
2022-09-21T19:05:57.523Z,8.20
2022-09-21T19:08:33.369Z,6.50
2022-09-21T19:14:01.287Z,4.65
2022-09-21T19:16:43.008Z,3.97
2022-09-21T19:19:12.759Z,3.20
2022-09-21T19:21:52.201Z,2.70
2022-09-21T19:24:30.750Z,2.53
2022-09-21T19:27:44.844Z,2.63
2022-09-21T19:30:14.606Z,3.05
2022-09-21T19:32:53.091Z,3.33
2022-09-21T19:35:26.563Z,3.17
2022-09-21T19:37:55.866Z,3.47
2022-09-21T19:40:25.754Z,2.95
2022-09-21T19:42:59.605Z,3.17
2022-09-21T19:45:38.284Z,3.60
2022-09-21T19:48:11.565Z,3.20
2022-09-21T19:50:54.815Z,3.08
2022-09-21T19:53:41.808Z,2.83
2022-09-21T19:56:32.729Z,2.88
2022-09-21T19:59:18.867Z,3.70
2022-09-21T20:01:56.467Z,4.00
2022-09-21T20:05:08.080Z,3.40
2022-09-21T20:07:44.481Z,3.30
2022-09-21T20:10:42.167Z,3.45
2022-09-21T20:13:29.266Z,3.08
2022-09-21T20:16:04.046Z,3.90
2022-09-21T20:18:45.319Z,4.18
2022-09-21T20:21:15.308Z,4.07
2022-09-21T20:23:42.174Z,4.10
2022-09-21T20:26:27.904Z,4.80
2022-09-21T20:28:55.255Z,5.88
2022-09-21T20:31:32.876Z,6.63
2022-09-21T20:33:59.889Z,8.30
2022-09-21T20:36:32.960Z,7.47
2022-09-21T20:39:02.513Z,6.25
2022-09-21T20:41:29.253Z,6.50
2022-09-21T20:43:56.868Z,7.80
2022-09-21T20:46:23.592Z,6.78
2022-09-21T20:49:02.401Z,6.60
2022-09-21T20:51:29.187Z,6.85
2022-09-21T20:53:58.602Z,7.00
2022-09-21T20:56:26.678Z,7.55
2022-09-21T20:58:53.958Z,6.95
2022-09-21T21:01:20.712Z,7.03
2022-09-21T21:03:47.435Z,7.38
2022-09-21T21:06:18.784Z,6.85
2022-09-21T21:08:46.542Z,6.70
2022-09-21T21:11:17.554Z,6.47
2022-09-21T21:13:44.385Z,6.03
2022-09-21T21:16:12.508Z,6.80
2022-09-21T21:18:42.846Z,7.07
2022-09-21T21:21:09.918Z,5.88
2022-09-21T21:23:55.505Z,6.30
2022-09-21T21:26:33.549Z,6.05
2022-09-21T21:29:09.607Z,5.65
2022-09-21T21:31:36.844Z,5.50
2022-09-21T21:34:03.653Z,5.93
2022-09-21T21:36:30.471Z,5.78
2022-09-21T21:38:57.527Z,6.28
2022-09-21T21:41:24.766Z,5.80
2022-09-21T21:43:52.153Z,6.47
2022-09-21T21:46:18.919Z,6.13
2022-09-21T21:48:45.829Z,5.82
2022-09-21T21:51:12.974Z,6.18
2022-09-21T21:53:40.586Z,5.95
2022-09-21T21:56:07.361Z,5.70
2022-09-21T21:58:34.625Z,6.10
2022-09-21T22:01:17.383Z,6.90
2022-09-21T22:03:44.154Z,6.80
2022-09-21T22:06:11.688Z,6.40
2022-09-21T22:08:40.093Z,6.93
2022-09-21T22:11:07.655Z,6.07
2022-09-21T22:13:39.391Z,6.55
2022-09-21T22:16:12.817Z,7.22
2022-09-21T22:18:39.947Z,7.05
2022-09-21T22:21:18.108Z,5.88
2022-09-21T22:23:44.858Z,7.20
2022-09-21T22:26:16.114Z,6.60
2022-09-21T22:28:49.318Z,7.05
2022-09-21T22:31:18.676Z,7.07
2022-09-21T22:33:45.908Z,6.97
2022-09-21T22:36:17.809Z,7.28
2022-09-21T22:38:45.226Z,6.75
2022-09-21T22:41:14.794Z,6.80
2022-09-21T22:43:41.603Z,6.20
2022-09-21T22:46:09.082Z,6.20
2022-09-21T22:48:35.843Z,6.20
2022-09-21T22:51:03.558Z,6.03
2022-09-21T22:53:31.743Z,5.28
2022-09-21T22:56:07.337Z,5.88
2022-09-21T22:58:35.939Z,5.05
2022-09-21T23:01:13.291Z,5.72
2022-09-21T23:03:41.737Z,5.95
2022-09-21T23:06:10.771Z,5.88
2022-09-21T23:08:37.889Z,5.43
2022-09-21T23:11:13.382Z,5.78
2022-09-21T23:13:40.310Z,5.65
2022-09-21T23:16:09.889Z,5.68
2022-09-21T23:18:37.633Z,5.22
2022-09-21T23:21:10.333Z,5.65
2022-09-21T23:23:37.278Z,5.47
2022-09-21T23:26:09.677Z,5.70
2022-09-21T23:28:37.321Z,6.13
2022-09-21T23:31:07.498Z,5.70
2022-09-21T23:33:39.916Z,6.60
2022-09-21T23:36:08.879Z,6.38
2022-09-21T23:38:36.292Z,6.35
2022-09-21T23:41:03.370Z,6.38
2022-09-21T23:43:30.145Z,6.20
2022-09-21T23:45:57.525Z,5.68
2022-09-21T23:48:24.592Z,6.50
2022-09-21T23:50:51.527Z,6.60
2022-09-21T23:53:18.407Z,6.57
2022-09-21T23:55:45.304Z,5.95
2022-09-21T23:58:11.986Z,5.68
